sensor_id;sensor_type;location;lat;lon;timestamp;P1;durP1;ratioP1;P2;durP2;ratioP2
74777;SDS011;63298;53.164;8.610;2022-12-10T00:00:18;27.97;;;12.57;;
74777;SDS011;63298;53.164;8.610;2022-12-10T00:02:43;31.87;;;13.00;;
74777;SDS011;63298;53.164;8.610;2022-12-10T00:05:08;39.20;;;15.55;;
74777;SDS011;63298;53.164;8.610;2022-12-10T00:07:33;38.43;;;14.57;;
74777;SDS011;63298;53.164;8.610;2022-12-10T00:09:59;30.50;;;12.23;;
74777;SDS011;63298;53.164;8.610;2022-12-10T00:12:24;36.75;;;14.20;;
74777;SDS011;63298;53.164;8.610;2022-12-10T00:14:49;30.20;;;12.37;;
74777;SDS011;63298;53.164;8.610;2022-12-10T00:17:15;35.70;;;13.82;;
74777;SDS011;63298;53.164;8.610;2022-12-10T00:19:40;35.17;;;13.80;;
74777;SDS011;63298;53.164;8.610;2022-12-10T00:22:05;35.10;;;14.13;;
74777;SDS011;63298;53.164;8.610;2022-12-10T00:24:30;31.80;;;12.52;;
74777;SDS011;63298;53.164;8.610;2022-12-10T00:26:56;33.83;;;14.00;;
74777;SDS011;63298;53.164;8.610;2022-12-10T00:29:21;36.70;;;14.40;;
74777;SDS011;63298;53.164;8.610;2022-12-10T00:31:46;35.38;;;14.00;;
74777;SDS011;63298;53.164;8.610;2022-12-10T00:34:12;33.38;;;13.98;;
74777;SDS011;63298;53.164;8.610;2022-12-10T00:36:38;33.00;;;14.38;;
74777;SDS011;63298;53.164;8.610;2022-12-10T00:39:06;33.92;;;14.02;;
74777;SDS011;63298;53.164;8.610;2022-12-10T00:41:32;33.60;;;13.45;;
74777;SDS011;63298;53.164;8.610;2022-12-10T00:43:57;30.20;;;12.83;;
74777;SDS011;63298;53.164;8.610;2022-12-10T00:46:23;35.63;;;14.10;;
74777;SDS011;63298;53.164;8.610;2022-12-10T00:48:48;35.03;;;13.43;;
74777;SDS011;63298;53.164;8.610;2022-12-10T00:51:14;30.25;;;12.85;;
74777;SDS011;63298;53.164;8.610;2022-12-10T00:53:45;41.30;;;14.88;;
74777;SDS011;63298;53.164;8.610;2022-12-10T00:56:12;34.47;;;14.07;;
74777;SDS011;63298;53.164;8.610;2022-12-10T00:58:39;31.02;;;13.43;;
74777;SDS011;63298;53.164;8.610;2022-12-10T01:01:21;42.88;;;15.35;;
74777;SDS011;63298;53.164;8.610;2022-12-10T01:03:50;36.83;;;15.13;;
74777;SDS011;63298;53.164;8.610;2022-12-10T01:08:55;36.03;;;15.15;;
74777;SDS011;63298;53.164;8.610;2022-12-10T01:11:23;37.97;;;15.25;;
74777;SDS011;63298;53.164;8.610;2022-12-10T01:13:51;40.92;;;16.02;;
74777;SDS011;63298;53.164;8.610;2022-12-10T01:16:17;39.85;;;14.73;;
74777;SDS011;63298;53.164;8.610;2022-12-10T01:18:44;35.58;;;14.88;;
74777;SDS011;63298;53.164;8.610;2022-12-10T01:21:10;38.35;;;15.85;;
74777;SDS011;63298;53.164;8.610;2022-12-10T01:23:38;39.65;;;15.32;;
74777;SDS011;63298;53.164;8.610;2022-12-10T01:26:05;39.25;;;15.35;;
74777;SDS011;63298;53.164;8.610;2022-12-10T01:28:33;40.22;;;15.70;;
74777;SDS011;63298;53.164;8.610;2022-12-10T01:31:01;44.15;;;16.25;;
74777;SDS011;63298;53.164;8.610;2022-12-10T01:33:31;36.80;;;14.18;;
74777;SDS011;63298;53.164;8.610;2022-12-10T01:36:07;38.17;;;14.65;;
74777;SDS011;63298;53.164;8.610;2022-12-10T01:38:41;33.08;;;14.32;;
74777;SDS011;63298;53.164;8.610;2022-12-10T01:41:07;42.15;;;17.23;;
74777;SDS011;63298;53.164;8.610;2022-12-10T01:46:33;37.00;;;14.85;;
74777;SDS011;63298;53.164;8.610;2022-12-10T01:49:01;38.72;;;15.57;;
74777;SDS011;63298;53.164;8.610;2022-12-10T01:51:29;42.40;;;16.55;;
74777;SDS011;63298;53.164;8.610;2022-12-10T01:53:56;39.65;;;15.82;;
74777;SDS011;63298;53.164;8.610;2022-12-10T01:56:22;39.70;;;15.68;;
74777;SDS011;63298;53.164;8.610;2022-12-10T01:58:49;38.72;;;15.13;;
74777;SDS011;63298;53.164;8.610;2022-12-10T02:01:21;43.60;;;15.88;;
74777;SDS011;63298;53.164;8.610;2022-12-10T02:09:30;40.17;;;15.35;;
74777;SDS011;63298;53.164;8.610;2022-12-10T02:17:16;43.55;;;16.83;;
74777;SDS011;63298;53.164;8.610;2022-12-10T02:20:21;41.97;;;15.80;;
74777;SDS011;63298;53.164;8.610;2022-12-10T02:22:46;40.25;;;15.55;;
74777;SDS011;63298;53.164;8.610;2022-12-10T02:25:19;40.65;;;14.15;;
74777;SDS011;63298;53.164;8.610;2022-12-10T02:27:51;42.00;;;15.27;;
74777;SDS011;63298;53.164;8.610;2022-12-10T02:30:24;41.63;;;15.95;;
74777;SDS011;63298;53.164;8.610;2022-12-10T02:32:50;37.92;;;15.02;;
74777;SDS011;63298;53.164;8.610;2022-12-10T02:35:17;40.38;;;15.32;;
74777;SDS011;63298;53.164;8.610;2022-12-10T02:37:52;41.88;;;16.40;;
74777;SDS011;63298;53.164;8.610;2022-12-10T02:40:25;43.53;;;15.77;;
74777;SDS011;63298;53.164;8.610;2022-12-10T02:42:55;39.38;;;14.65;;
74777;SDS011;63298;53.164;8.610;2022-12-10T02:45:22;37.42;;;14.85;;
74777;SDS011;63298;53.164;8.610;2022-12-10T02:47:49;39.08;;;14.82;;
74777;SDS011;63298;53.164;8.610;2022-12-10T02:50:16;40.75;;;16.23;;
74777;SDS011;63298;53.164;8.610;2022-12-10T02:52:44;40.53;;;15.90;;
74777;SDS011;63298;53.164;8.610;2022-12-10T02:55:13;37.70;;;15.03;;
74777;SDS011;63298;53.164;8.610;2022-12-10T03:00:20;38.65;;;15.50;;
74777;SDS011;63298;53.164;8.610;2022-12-10T03:05:53;38.70;;;14.98;;
74777;SDS011;63298;53.164;8.610;2022-12-10T03:08:24;39.42;;;14.40;;
74777;SDS011;63298;53.164;8.610;2022-12-10T03:13:39;40.25;;;15.98;;
74777;SDS011;63298;53.164;8.610;2022-12-10T03:16:18;38.10;;;15.90;;
74777;SDS011;63298;53.164;8.610;2022-12-10T03:18:46;38.85;;;15.40;;
74777;SDS011;63298;53.164;8.610;2022-12-10T03:21:14;39.67;;;14.48;;
74777;SDS011;63298;53.164;8.610;2022-12-10T03:23:41;41.38;;;16.23;;
74777;SDS011;63298;53.164;8.610;2022-12-10T03:26:11;35.63;;;14.40;;
74777;SDS011;63298;53.164;8.610;2022-12-10T03:28:38;41.13;;;15.98;;
74777;SDS011;63298;53.164;8.610;2022-12-10T03:31:11;40.70;;;16.05;;
74777;SDS011;63298;53.164;8.610;2022-12-10T03:33:39;41.30;;;15.75;;
74777;SDS011;63298;53.164;8.610;2022-12-10T03:36:05;40.85;;;14.93;;
74777;SDS011;63298;53.164;8.610;2022-12-10T03:38:33;38.67;;;14.88;;
74777;SDS011;63298;53.164;8.610;2022-12-10T03:40:59;36.50;;;15.50;;
74777;SDS011;63298;53.164;8.610;2022-12-10T03:43:24;42.70;;;15.43;;
74777;SDS011;63298;53.164;8.610;2022-12-10T03:45:50;36.08;;;14.60;;
74777;SDS011;63298;53.164;8.610;2022-12-10T03:48:15;40.55;;;15.23;;
74777;SDS011;63298;53.164;8.610;2022-12-10T03:50:40;37.60;;;15.40;;
74777;SDS011;63298;53.164;8.610;2022-12-10T03:53:06;37.28;;;14.27;;
74777;SDS011;63298;53.164;8.610;2022-12-10T03:55:31;33.63;;;14.82;;
74777;SDS011;63298;53.164;8.610;2022-12-10T03:57:56;38.75;;;14.32;;
74777;SDS011;63298;53.164;8.610;2022-12-10T04:00:22;39.83;;;15.48;;
74777;SDS011;63298;53.164;8.610;2022-12-10T04:02:47;34.30;;;15.03;;
74777;SDS011;63298;53.164;8.610;2022-12-10T04:05:12;35.22;;;14.18;;
74777;SDS011;63298;53.164;8.610;2022-12-10T04:07:38;40.40;;;15.57;;
74777;SDS011;63298;53.164;8.610;2022-12-10T04:10:03;30.85;;;12.68;;
74777;SDS011;63298;53.164;8.610;2022-12-10T04:12:29;36.72;;;14.57;;
74777;SDS011;63298;53.164;8.610;2022-12-10T04:14:55;36.28;;;14.18;;
74777;SDS011;63298;53.164;8.610;2022-12-10T04:17:20;32.47;;;12.90;;
74777;SDS011;63298;53.164;8.610;2022-12-10T04:19:46;32.92;;;14.15;;
74777;SDS011;63298;53.164;8.610;2022-12-10T04:22:11;36.55;;;14.75;;
74777;SDS011;63298;53.164;8.610;2022-12-10T04:24:36;34.22;;;13.57;;
74777;SDS011;63298;53.164;8.610;2022-12-10T04:27:04;37.17;;;14.38;;
74777;SDS011;63298;53.164;8.610;2022-12-10T04:29:33;30.73;;;13.05;;
74777;SDS011;63298;53.164;8.610;2022-12-10T04:31:59;33.80;;;13.80;;
74777;SDS011;63298;53.164;8.610;2022-12-10T04:34:24;35.63;;;13.65;;
74777;SDS011;63298;53.164;8.610;2022-12-10T04:36:50;35.83;;;13.77;;
74777;SDS011;63298;53.164;8.610;2022-12-10T04:39:16;27.23;;;12.73;;
74777;SDS011;63298;53.164;8.610;2022-12-10T04:41:42;34.60;;;14.82;;
74777;SDS011;63298;53.164;8.610;2022-12-10T04:44:09;30.45;;;13.00;;
74777;SDS011;63298;53.164;8.610;2022-12-10T04:46:34;32.10;;;12.75;;
74777;SDS011;63298;53.164;8.610;2022-12-10T04:49:00;30.00;;;12.65;;
74777;SDS011;63298;53.164;8.610;2022-12-10T04:51:27;26.35;;;11.95;;
74777;SDS011;63298;53.164;8.610;2022-12-10T04:53:52;32.47;;;12.20;;
74777;SDS011;63298;53.164;8.610;2022-12-10T04:56:17;26.85;;;11.98;;
74777;SDS011;63298;53.164;8.610;2022-12-10T04:58:42;25.70;;;11.32;;
74777;SDS011;63298;53.164;8.610;2022-12-10T05:01:08;31.35;;;12.63;;
74777;SDS011;63298;53.164;8.610;2022-12-10T05:03:35;31.42;;;12.85;;
74777;SDS011;63298;53.164;8.610;2022-12-10T05:06:01;26.75;;;12.48;;
74777;SDS011;63298;53.164;8.610;2022-12-10T05:08:27;23.08;;;11.50;;
74777;SDS011;63298;53.164;8.610;2022-12-10T05:10:52;27.67;;;11.60;;
74777;SDS011;63298;53.164;8.610;2022-12-10T05:13:18;26.37;;;11.27;;
74777;SDS011;63298;53.164;8.610;2022-12-10T05:15:43;20.03;;;8.80;;
74777;SDS011;63298;53.164;8.610;2022-12-10T05:18:08;19.47;;;9.50;;
74777;SDS011;63298;53.164;8.610;2022-12-10T05:20:34;21.33;;;9.88;;
74777;SDS011;63298;53.164;8.610;2022-12-10T05:22:59;20.97;;;10.27;;
74777;SDS011;63298;53.164;8.610;2022-12-10T05:25:24;23.77;;;10.30;;
74777;SDS011;63298;53.164;8.610;2022-12-10T05:27:50;25.85;;;11.82;;
74777;SDS011;63298;53.164;8.610;2022-12-10T05:30:15;26.17;;;11.27;;
74777;SDS011;63298;53.164;8.610;2022-12-10T05:32:43;29.70;;;12.60;;
74777;SDS011;63298;53.164;8.610;2022-12-10T05:35:08;25.80;;;10.93;;
74777;SDS011;63298;53.164;8.610;2022-12-10T05:37:33;22.60;;;10.77;;
74777;SDS011;63298;53.164;8.610;2022-12-10T05:39:59;27.83;;;11.37;;
74777;SDS011;63298;53.164;8.610;2022-12-10T05:42:24;25.77;;;11.73;;
74777;SDS011;63298;53.164;8.610;2022-12-10T05:44:49;25.95;;;11.55;;
74777;SDS011;63298;53.164;8.610;2022-12-10T05:47:14;25.92;;;12.38;;
74777;SDS011;63298;53.164;8.610;2022-12-10T05:49:40;24.80;;;10.80;;
74777;SDS011;63298;53.164;8.610;2022-12-10T05:52:05;28.42;;;12.40;;
74777;SDS011;63298;53.164;8.610;2022-12-10T05:54:30;28.25;;;12.52;;
74777;SDS011;63298;53.164;8.610;2022-12-10T05:56:56;22.93;;;10.67;;
74777;SDS011;63298;53.164;8.610;2022-12-10T05:59:21;26.40;;;11.73;;
74777;SDS011;63298;53.164;8.610;2022-12-10T06:01:46;25.20;;;11.48;;
74777;SDS011;63298;53.164;8.610;2022-12-10T06:04:12;25.27;;;10.95;;
74777;SDS011;63298;53.164;8.610;2022-12-10T06:06:38;20.30;;;10.38;;
74777;SDS011;63298;53.164;8.610;2022-12-10T06:09:05;20.92;;;10.00;;
74777;SDS011;63298;53.164;8.610;2022-12-10T06:11:35;22.02;;;11.35;;
74777;SDS011;63298;53.164;8.610;2022-12-10T06:14:00;29.17;;;12.38;;
74777;SDS011;63298;53.164;8.610;2022-12-10T06:16:26;24.73;;;11.23;;
74777;SDS011;63298;53.164;8.610;2022-12-10T06:18:52;21.52;;;10.85;;
74777;SDS011;63298;53.164;8.610;2022-12-10T06:21:18;18.70;;;9.68;;
74777;SDS011;63298;53.164;8.610;2022-12-10T06:23:44;21.73;;;10.43;;
74777;SDS011;63298;53.164;8.610;2022-12-10T06:26:12;21.02;;;10.43;;
74777;SDS011;63298;53.164;8.610;2022-12-10T06:28:39;18.38;;;9.27;;
74777;SDS011;63298;53.164;8.610;2022-12-10T06:31:05;19.00;;;9.55;;
74777;SDS011;63298;53.164;8.610;2022-12-10T06:33:31;19.80;;;10.27;;
74777;SDS011;63298;53.164;8.610;2022-12-10T06:35:57;21.67;;;10.32;;
74777;SDS011;63298;53.164;8.610;2022-12-10T06:38:22;20.73;;;10.05;;
74777;SDS011;63298;53.164;8.610;2022-12-10T06:40:48;25.67;;;11.00;;
74777;SDS011;63298;53.164;8.610;2022-12-10T06:43:13;23.98;;;11.38;;
74777;SDS011;63298;53.164;8.610;2022-12-10T06:45:39;20.40;;;10.93;;
74777;SDS011;63298;53.164;8.610;2022-12-10T06:48:05;23.25;;;10.68;;
74777;SDS011;63298;53.164;8.610;2022-12-10T06:50:31;22.23;;;10.48;;
74777;SDS011;63298;53.164;8.610;2022-12-10T06:52:56;22.77;;;11.23;;
74777;SDS011;63298;53.164;8.610;2022-12-10T06:55:21;26.50;;;11.02;;
74777;SDS011;63298;53.164;8.610;2022-12-10T06:57:50;23.60;;;11.05;;
74777;SDS011;63298;53.164;8.610;2022-12-10T07:00:16;20.67;;;10.30;;
74777;SDS011;63298;53.164;8.610;2022-12-10T07:02:41;21.25;;;10.07;;
74777;SDS011;63298;53.164;8.610;2022-12-10T07:05:07;22.97;;;10.57;;
74777;SDS011;63298;53.164;8.610;2022-12-10T07:07:32;24.58;;;10.43;;
74777;SDS011;63298;53.164;8.610;2022-12-10T07:09:57;17.73;;;9.57;;
74777;SDS011;63298;53.164;8.610;2022-12-10T07:12:23;19.63;;;9.40;;
74777;SDS011;63298;53.164;8.610;2022-12-10T07:14:48;24.93;;;10.40;;
74777;SDS011;63298;53.164;8.610;2022-12-10T07:17:13;23.73;;;10.83;;
74777;SDS011;63298;53.164;8.610;2022-12-10T07:19:39;19.80;;;8.48;;
74777;SDS011;63298;53.164;8.610;2022-12-10T07:22:04;19.20;;;8.90;;
74777;SDS011;63298;53.164;8.610;2022-12-10T07:24:29;19.30;;;9.50;;
74777;SDS011;63298;53.164;8.610;2022-12-10T07:26:54;17.30;;;8.97;;
74777;SDS011;63298;53.164;8.610;2022-12-10T07:29:20;17.00;;;8.43;;
74777;SDS011;63298;53.164;8.610;2022-12-10T07:31:46;17.70;;;8.27;;
74777;SDS011;63298;53.164;8.610;2022-12-10T07:34:12;20.67;;;8.90;;
74777;SDS011;63298;53.164;8.610;2022-12-10T07:36:37;23.37;;;9.93;;
74777;SDS011;63298;53.164;8.610;2022-12-10T07:39:07;19.50;;;10.02;;
74777;SDS011;63298;53.164;8.610;2022-12-10T07:41:33;18.55;;;9.43;;
74777;SDS011;63298;53.164;8.610;2022-12-10T07:43:59;23.02;;;10.60;;
74777;SDS011;63298;53.164;8.610;2022-12-10T07:46:26;25.60;;;11.13;;
74777;SDS011;63298;53.164;8.610;2022-12-10T07:48:53;19.73;;;10.55;;
74777;SDS011;63298;53.164;8.610;2022-12-10T07:51:19;20.85;;;10.20;;
74777;SDS011;63298;53.164;8.610;2022-12-10T07:53:45;18.80;;;10.02;;
74777;SDS011;63298;53.164;8.610;2022-12-10T07:56:11;24.45;;;11.45;;
74777;SDS011;63298;53.164;8.610;2022-12-10T07:58:37;21.83;;;10.85;;
74777;SDS011;63298;53.164;8.610;2022-12-10T08:01:06;21.05;;;10.38;;
74777;SDS011;63298;53.164;8.610;2022-12-10T08:03:32;21.65;;;10.73;;
74777;SDS011;63298;53.164;8.610;2022-12-10T08:06:04;18.65;;;10.10;;
74777;SDS011;63298;53.164;8.610;2022-12-10T08:08:35;25.58;;;11.73;;
74777;SDS011;63298;53.164;8.610;2022-12-10T08:11:01;28.33;;;12.45;;
74777;SDS011;63298;53.164;8.610;2022-12-10T08:13:28;25.98;;;11.30;;
74777;SDS011;63298;53.164;8.610;2022-12-10T08:15:53;22.65;;;11.68;;
74777;SDS011;63298;53.164;8.610;2022-12-10T08:18:20;25.33;;;12.15;;
74777;SDS011;63298;53.164;8.610;2022-12-10T08:20:46;23.52;;;11.00;;
74777;SDS011;63298;53.164;8.610;2022-12-10T08:23:11;23.83;;;10.80;;
74777;SDS011;63298;53.164;8.610;2022-12-10T08:25:36;24.88;;;12.05;;
74777;SDS011;63298;53.164;8.610;2022-12-10T08:28:02;24.52;;;11.25;;
74777;SDS011;63298;53.164;8.610;2022-12-10T08:30:28;20.80;;;10.50;;
74777;SDS011;63298;53.164;8.610;2022-12-10T08:32:53;22.40;;;10.20;;
74777;SDS011;63298;53.164;8.610;2022-12-10T08:35:18;21.90;;;10.93;;
74777;SDS011;63298;53.164;8.610;2022-12-10T08:37:44;26.73;;;11.13;;
74777;SDS011;63298;53.164;8.610;2022-12-10T08:40:09;23.93;;;10.37;;
74777;SDS011;63298;53.164;8.610;2022-12-10T08:42:35;19.30;;;9.65;;
74777;SDS011;63298;53.164;8.610;2022-12-10T08:45:00;20.90;;;10.43;;
74777;SDS011;63298;53.164;8.610;2022-12-10T08:47:25;20.83;;;10.23;;
74777;SDS011;63298;53.164;8.610;2022-12-10T08:49:51;19.33;;;9.52;;
74777;SDS011;63298;53.164;8.610;2022-12-10T08:52:16;20.83;;;9.35;;
74777;SDS011;63298;53.164;8.610;2022-12-10T08:54:42;21.63;;;10.13;;
74777;SDS011;63298;53.164;8.610;2022-12-10T08:57:07;22.00;;;10.38;;
74777;SDS011;63298;53.164;8.610;2022-12-10T08:59:32;22.37;;;10.70;;
74777;SDS011;63298;53.164;8.610;2022-12-10T09:01:58;23.70;;;11.60;;
74777;SDS011;63298;53.164;8.610;2022-12-10T09:04:23;24.87;;;11.43;;
74777;SDS011;63298;53.164;8.610;2022-12-10T09:06:48;23.50;;;10.37;;
74777;SDS011;63298;53.164;8.610;2022-12-10T09:09:13;22.17;;;10.73;;
74777;SDS011;63298;53.164;8.610;2022-12-10T09:11:39;20.93;;;10.37;;
74777;SDS011;63298;53.164;8.610;2022-12-10T09:14:04;17.95;;;9.75;;
74777;SDS011;63298;53.164;8.610;2022-12-10T09:16:30;23.10;;;10.93;;
74777;SDS011;63298;53.164;8.610;2022-12-10T09:19:00;26.60;;;11.10;;
74777;SDS011;63298;53.164;8.610;2022-12-10T09:21:27;22.30;;;10.52;;
74777;SDS011;63298;53.164;8.610;2022-12-10T09:23:53;21.05;;;10.32;;
74777;SDS011;63298;53.164;8.610;2022-12-10T09:26:19;20.75;;;10.77;;
74777;SDS011;63298;53.164;8.610;2022-12-10T09:28:45;21.35;;;10.38;;
74777;SDS011;63298;53.164;8.610;2022-12-10T09:31:12;21.83;;;11.02;;
74777;SDS011;63298;53.164;8.610;2022-12-10T09:33:38;24.23;;;10.73;;
74777;SDS011;63298;53.164;8.610;2022-12-10T09:36:05;21.00;;;10.05;;
74777;SDS011;63298;53.164;8.610;2022-12-10T09:38:35;21.73;;;10.88;;
74777;SDS011;63298;53.164;8.610;2022-12-10T09:41:03;20.42;;;9.98;;
74777;SDS011;63298;53.164;8.610;2022-12-10T09:46:06;17.33;;;8.57;;
74777;SDS011;63298;53.164;8.610;2022-12-10T09:48:49;16.92;;;9.32;;
74777;SDS011;63298;53.164;8.610;2022-12-10T09:51:36;18.42;;;9.10;;
74777;SDS011;63298;53.164;8.610;2022-12-10T09:54:17;18.08;;;9.00;;
74777;SDS011;63298;53.164;8.610;2022-12-10T09:56:43;15.65;;;8.43;;
74777;SDS011;63298;53.164;8.610;2022-12-10T09:59:52;15.40;;;7.68;;
74777;SDS011;63298;53.164;8.610;2022-12-10T10:07:31;16.20;;;8.40;;
74777;SDS011;63298;53.164;8.610;2022-12-10T10:10:18;12.02;;;7.05;;
74777;SDS011;63298;53.164;8.610;2022-12-10T10:13:09;14.82;;;7.93;;
74777;SDS011;63298;53.164;8.610;2022-12-10T10:15:41;15.43;;;8.20;;
74777;SDS011;63298;53.164;8.610;2022-12-10T10:18:17;15.80;;;7.32;;
74777;SDS011;63298;53.164;8.610;2022-12-10T10:20:52;12.02;;;6.68;;
74777;SDS011;63298;53.164;8.610;2022-12-10T10:23:17;15.45;;;7.43;;
74777;SDS011;63298;53.164;8.610;2022-12-10T10:25:43;14.35;;;6.43;;
74777;SDS011;63298;53.164;8.610;2022-12-10T10:28:10;12.07;;;6.38;;
74777;SDS011;63298;53.164;8.610;2022-12-10T10:30:37;15.02;;;6.97;;
74777;SDS011;63298;53.164;8.610;2022-12-10T10:33:08;12.95;;;6.88;;
74777;SDS011;63298;53.164;8.610;2022-12-10T10:35:41;13.10;;;7.30;;
74777;SDS011;63298;53.164;8.610;2022-12-10T10:38:26;12.95;;;6.90;;
74777;SDS011;63298;53.164;8.610;2022-12-10T10:40:59;13.20;;;6.82;;
74777;SDS011;63298;53.164;8.610;2022-12-10T10:43:32;14.73;;;6.75;;
74777;SDS011;63298;53.164;8.610;2022-12-10T10:46:04;11.43;;;6.43;;
74777;SDS011;63298;53.164;8.610;2022-12-10T10:48:36;11.13;;;6.13;;
74777;SDS011;63298;53.164;8.610;2022-12-10T10:51:06;12.77;;;5.70;;
74777;SDS011;63298;53.164;8.610;2022-12-10T10:53:41;14.25;;;6.70;;
74777;SDS011;63298;53.164;8.610;2022-12-10T10:56:09;18.05;;;8.57;;
74777;SDS011;63298;53.164;8.610;2022-12-10T11:01:27;15.40;;;7.47;;
74777;SDS011;63298;53.164;8.610;2022-12-10T11:04:07;15.65;;;6.32;;
74777;SDS011;63298;53.164;8.610;2022-12-10T11:06:33;14.77;;;7.55;;
74777;SDS011;63298;53.164;8.610;2022-12-10T11:08:58;15.10;;;7.00;;
74777;SDS011;63298;53.164;8.610;2022-12-10T11:13:55;13.77;;;6.70;;
74777;SDS011;63298;53.164;8.610;2022-12-10T11:16:38;14.85;;;7.32;;
74777;SDS011;63298;53.164;8.610;2022-12-10T11:19:03;15.97;;;8.00;;
74777;SDS011;63298;53.164;8.610;2022-12-10T11:21:29;12.05;;;6.85;;
74777;SDS011;63298;53.164;8.610;2022-12-10T11:23:57;11.00;;;6.32;;
74777;SDS011;63298;53.164;8.610;2022-12-10T11:31:32;14.07;;;7.47;;
74777;SDS011;63298;53.164;8.610;2022-12-10T11:34:20;14.05;;;7.47;;
74777;SDS011;63298;53.164;8.610;2022-12-10T11:39:38;14.40;;;7.63;;
74777;SDS011;63298;53.164;8.610;2022-12-10T11:44:55;14.35;;;7.72;;
74777;SDS011;63298;53.164;8.610;2022-12-10T11:50:15;17.13;;;8.30;;
74777;SDS011;63298;53.164;8.610;2022-12-10T11:56:08;14.32;;;7.90;;
74777;SDS011;63298;53.164;8.610;2022-12-10T12:01:13;15.40;;;7.93;;
74777;SDS011;63298;53.164;8.610;2022-12-10T12:04:10;15.80;;;7.93;;
74777;SDS011;63298;53.164;8.610;2022-12-10T12:07:10;15.30;;;7.47;;
74777;SDS011;63298;53.164;8.610;2022-12-10T12:09:57;11.68;;;6.57;;
74777;SDS011;63298;53.164;8.610;2022-12-10T12:15:03;15.95;;;7.40;;
74777;SDS011;63298;53.164;8.610;2022-12-10T12:17:40;17.42;;;7.88;;
74777;SDS011;63298;53.164;8.610;2022-12-10T12:20:25;16.83;;;6.80;;
74777;SDS011;63298;53.164;8.610;2022-12-10T12:22:59;16.98;;;8.45;;
74777;SDS011;63298;53.164;8.610;2022-12-10T12:25:40;16.17;;;7.97;;
74777;SDS011;63298;53.164;8.610;2022-12-10T12:28:11;16.23;;;8.65;;
74777;SDS011;63298;53.164;8.610;2022-12-10T12:30:45;15.55;;;7.40;;
74777;SDS011;63298;53.164;8.610;2022-12-10T12:33:25;16.73;;;8.35;;
74777;SDS011;63298;53.164;8.610;2022-12-10T12:36:05;14.88;;;7.53;;
74777;SDS011;63298;53.164;8.610;2022-12-10T12:38:51;15.68;;;8.38;;
74777;SDS011;63298;53.164;8.610;2022-12-10T12:44:35;24.75;;;9.68;;
74777;SDS011;63298;53.164;8.610;2022-12-10T12:47:31;19.98;;;9.18;;
74777;SDS011;63298;53.164;8.610;2022-12-10T12:50:04;16.08;;;8.40;;
74777;SDS011;63298;53.164;8.610;2022-12-10T12:52:37;22.40;;;8.82;;
74777;SDS011;63298;53.164;8.610;2022-12-10T12:55:55;16.08;;;8.45;;
74777;SDS011;63298;53.164;8.610;2022-12-10T13:03:55;17.25;;;8.80;;
74777;SDS011;63298;53.164;8.610;2022-12-10T13:06:23;20.45;;;8.98;;
74777;SDS011;63298;53.164;8.610;2022-12-10T13:09:23;17.58;;;8.30;;
74777;SDS011;63298;53.164;8.610;2022-12-10T13:22:40;19.35;;;9.57;;
74777;SDS011;63298;53.164;8.610;2022-12-10T13:42:37;15.83;;;9.37;;
74777;SDS011;63298;53.164;8.610;2022-12-10T13:45:16;15.90;;;8.27;;
74777;SDS011;63298;53.164;8.610;2022-12-10T13:53:06;18.05;;;7.88;;
74777;SDS011;63298;53.164;8.610;2022-12-10T13:55:46;17.90;;;8.68;;
74777;SDS011;63298;53.164;8.610;2022-12-10T14:04:04;14.82;;;8.43;;
74777;SDS011;63298;53.164;8.610;2022-12-10T14:06:34;17.77;;;8.82;;
74777;SDS011;63298;53.164;8.610;2022-12-10T14:09:11;20.92;;;8.18;;
74777;SDS011;63298;53.164;8.610;2022-12-10T14:11:46;15.60;;;8.18;;
74777;SDS011;63298;53.164;8.610;2022-12-10T14:14:37;19.52;;;8.38;;
74777;SDS011;63298;53.164;8.610;2022-12-10T14:17:06;19.23;;;8.18;;
74777;SDS011;63298;53.164;8.610;2022-12-10T14:19:37;20.35;;;9.05;;
74777;SDS011;63298;53.164;8.610;2022-12-10T14:22:04;16.33;;;8.02;;
74777;SDS011;63298;53.164;8.610;2022-12-10T14:24:36;17.20;;;8.52;;
74777;SDS011;63298;53.164;8.610;2022-12-10T14:27:09;20.15;;;8.85;;
74777;SDS011;63298;53.164;8.610;2022-12-10T14:29:36;18.25;;;8.30;;
74777;SDS011;63298;53.164;8.610;2022-12-10T14:32:01;19.17;;;8.93;;
74777;SDS011;63298;53.164;8.610;2022-12-10T14:34:27;23.00;;;10.15;;
74777;SDS011;63298;53.164;8.610;2022-12-10T14:36:55;24.33;;;11.13;;
74777;SDS011;63298;53.164;8.610;2022-12-10T14:39:30;23.73;;;10.27;;
74777;SDS011;63298;53.164;8.610;2022-12-10T14:41:58;24.58;;;9.68;;
74777;SDS011;63298;53.164;8.610;2022-12-10T14:44:26;21.52;;;9.25;;
74777;SDS011;63298;53.164;8.610;2022-12-10T14:46:58;20.70;;;9.55;;
74777;SDS011;63298;53.164;8.610;2022-12-10T14:49:31;22.83;;;10.27;;
74777;SDS011;63298;53.164;8.610;2022-12-10T14:51:56;20.42;;;10.88;;
74777;SDS011;63298;53.164;8.610;2022-12-10T14:54:23;23.38;;;10.68;;
74777;SDS011;63298;53.164;8.610;2022-12-10T14:56:51;21.92;;;10.40;;
74777;SDS011;63298;53.164;8.610;2022-12-10T14:59:27;26.92;;;11.45;;
74777;SDS011;63298;53.164;8.610;2022-12-10T15:01:57;22.50;;;10.05;;
74777;SDS011;63298;53.164;8.610;2022-12-10T15:04:27;24.35;;;10.25;;
74777;SDS011;63298;53.164;8.610;2022-12-10T15:07:11;26.35;;;10.57;;
74777;SDS011;63298;53.164;8.610;2022-12-10T15:09:42;23.48;;;9.52;;
74777;SDS011;63298;53.164;8.610;2022-12-10T15:12:15;26.58;;;10.70;;
74777;SDS011;63298;53.164;8.610;2022-12-10T15:15:37;23.65;;;10.55;;
74777;SDS011;63298;53.164;8.610;2022-12-10T15:18:02;23.23;;;9.43;;
74777;SDS011;63298;53.164;8.610;2022-12-10T15:23:30;23.52;;;10.52;;
74777;SDS011;63298;53.164;8.610;2022-12-10T15:30:47;19.67;;;9.93;;
74777;SDS011;63298;53.164;8.610;2022-12-10T15:35:58;25.25;;;10.43;;
74777;SDS011;63298;53.164;8.610;2022-12-10T15:38:25;41.53;;;17.35;;
74777;SDS011;63298;53.164;8.610;2022-12-10T15:40:50;25.63;;;11.65;;
74777;SDS011;63298;53.164;8.610;2022-12-10T15:45:48;20.30;;;9.50;;
74777;SDS011;63298;53.164;8.610;2022-12-10T15:48:14;19.48;;;9.02;;
74777;SDS011;63298;53.164;8.610;2022-12-10T15:50:40;23.70;;;9.65;;
74777;SDS011;63298;53.164;8.610;2022-12-10T15:53:14;34.90;;;15.43;;
74777;SDS011;63298;53.164;8.610;2022-12-10T15:55:46;29.98;;;13.63;;
74777;SDS011;63298;53.164;8.610;2022-12-10T15:58:12;19.92;;;9.52;;
74777;SDS011;63298;53.164;8.610;2022-12-10T16:00:37;34.30;;;12.95;;
74777;SDS011;63298;53.164;8.610;2022-12-10T16:03:04;22.83;;;10.25;;
74777;SDS011;63298;53.164;8.610;2022-12-10T16:05:34;31.73;;;12.27;;
74777;SDS011;63298;53.164;8.610;2022-12-10T16:08:18;20.92;;;9.07;;
74777;SDS011;63298;53.164;8.610;2022-12-10T16:10:47;23.52;;;10.35;;
74777;SDS011;63298;53.164;8.610;2022-12-10T16:13:17;19.35;;;9.80;;
74777;SDS011;63298;53.164;8.610;2022-12-10T16:15:48;21.65;;;10.18;;
74777;SDS011;63298;53.164;8.610;2022-12-10T16:18:17;56.22;;;18.25;;
74777;SDS011;63298;53.164;8.610;2022-12-10T16:20:43;45.72;;;15.65;;
74777;SDS011;63298;53.164;8.610;2022-12-10T16:23:09;29.95;;;12.90;;
74777;SDS011;63298;53.164;8.610;2022-12-10T16:25:34;21.50;;;10.15;;
74777;SDS011;63298;53.164;8.610;2022-12-10T16:28:01;23.75;;;10.57;;
74777;SDS011;63298;53.164;8.610;2022-12-10T16:30:37;21.70;;;9.88;;
74777;SDS011;63298;53.164;8.610;2022-12-10T16:33:06;25.00;;;10.30;;
74777;SDS011;63298;53.164;8.610;2022-12-10T16:35:32;21.75;;;10.02;;
74777;SDS011;63298;53.164;8.610;2022-12-10T16:37:57;19.17;;;9.85;;